Time;durP1;ratioP1;P1;durP2;ratioP2;P2;SDS_P1;SDS_P2;PMS_P1;PMS_P2;Temp;Humidity;BMP_temperature;BMP_pressure;BME280_temperature;BME280_humidity;BME280_pressure;Samples;Min_cycle;Max_cycle;Signal;HPM_P1;HPM_P2
2022/09/06 00:01:12;;;;;;;8.25;4.45;;;;;;;;;;5139260;27;20705;-65
2022/09/06 00:03:38;;;;;;;11.35;4.63;;;;;;;;;;5130265;27;20314;-65
2022/09/06 00:06:10;;;;;;;11.98;4.40;;;;;;;;;;5132815;27;20501;-65
2022/09/06 00:08:36;;;;;;;13.43;3.65;;;;;;;;;;5125556;27;20118;-65
2022/09/06 00:11:02;;;;;;;13.15;4.95;;;;;;;;;;5129009;27;20113;-64
2022/09/06 00:13:28;;;;;;;9.48;3.33;;;;;;;;;;5128917;27;20044;-65
2022/09/06 00:15:53;;;;;;;13.85;5.28;;;;;;;;;;5133318;27;20023;-65
2022/09/06 00:18:18;;;;;;;18.10;4.32;;;;;;;;;;5132312;27;20437;-65
2022/09/06 00:20:44;;;;;;;9.32;2.72;;;;;;;;;;5129799;27;20072;-64
2022/09/06 00:23:09;;;;;;;10.80;4.05;;;;;;;;;;5127192;27;20458;-65
2022/09/06 00:25:34;;;;;;;5.05;2.85;;;;;;;;;;5130960;27;20489;-65
2022/09/06 00:28:01;;;;;;;8.65;3.30;;;;;;;;;;5126862;27;20058;-65
2022/09/06 00:30:27;;;;;;;17.33;4.28;;;;;;;;;;5127284;27;20043;-65
2022/09/06 00:32:52;;;;;;;18.38;4.85;;;;;;;;;;5133893;27;20050;-65
2022/09/06 00:35:18;;;;;;;18.92;3.53;;;;;;;;;;5124016;27;20100;-65
2022/09/06 00:37:43;;;;;;;15.35;4.05;;;;;;;;;;5128958;27;20114;-65
2022/09/06 00:40:09;;;;;;;9.63;4.28;;;;;;;;;;5128093;27;20720;-65
2022/09/06 00:42:34;;;;;;;14.68;3.80;;;;;;;;;;5130909;27;20061;-65
2022/09/06 00:44:59;;;;;;;29.40;6.82;;;;;;;;;;5123354;27;20042;-66
2022/09/06 00:47:26;;;;;;;15.85;3.35;;;;;;;;;;5134405;27;20360;-65
2022/09/06 00:49:52;;;;;;;20.10;2.65;;;;;;;;;;5130747;27;20592;-64
2022/09/06 00:52:18;;;;;;;8.15;3.08;;;;;;;;;;5127178;27;20023;-65
2022/09/06 00:54:44;;;;;;;8.93;3.63;;;;;;;;;;5129502;27;20064;-65
2022/09/06 00:57:10;;;;;;;16.77;4.80;;;;;;;;;;5130789;27;20102;-64
2022/09/06 00:59:36;;;;;;;21.40;4.45;;;;;;;;;;5131067;27;20018;-66
2022/09/06 01:02:02;;;;;;;24.85;3.75;;;;;;;;;;5133577;27;20098;-64
2022/09/06 01:04:28;;;;;;;10.50;5.18;;;;;;;;;;5112245;27;20038;-66
2022/09/06 01:06:53;;;;;;;13.25;4.75;;;;;;;;;;5134471;27;20026;-65
2022/09/06 01:09:37;;;;;;;13.90;4.53;;;;;;;;;;5132219;27;20461;-65
2022/09/06 01:12:18;;;;;;;16.52;5.93;;;;;;;;;;5132206;27;20034;-65
2022/09/06 01:14:51;;;;;;;13.23;4.65;;;;;;;;;;5132471;27;20022;-65
2022/09/06 01:17:31;;;;;;;12.23;3.53;;;;;;;;;;5134901;27;20064;-64
2022/09/06 01:20:18;;;;;;;17.35;5.13;;;;;;;;;;5135037;27;20102;-66
2022/09/06 01:22:58;;;;;;;13.88;4.85;;;;;;;;;;5130300;27;20635;-66
2022/09/06 01:25:24;;;;;;;14.93;3.58;;;;;;;;;;5127786;27;20142;-65
2022/09/06 01:27:49;;;;;;;9.23;3.53;;;;;;;;;;5131569;27;20173;-65
2022/09/06 01:30:16;;;;;;;14.85;3.85;;;;;;;;;;5128044;27;20019;-65
2022/09/06 01:32:44;;;;;;;12.07;3.63;;;;;;;;;;5133878;27;20593;-65
2022/09/06 01:35:16;;;;;;;12.70;4.60;;;;;;;;;;5129339;27;20504;-65
2022/09/06 01:37:42;;;;;;;12.35;4.07;;;;;;;;;;5127514;27;20514;-64
2022/09/06 01:40:07;;;;;;;19.95;5.03;;;;;;;;;;5136655;27;20018;-65
2022/09/06 01:42:34;;;;;;;12.35;3.10;;;;;;;;;;5133862;27;20023;-66
2022/09/06 01:45:05;;;;;;;12.43;3.33;;;;;;;;;;5135691;27;20015;-64
2022/09/06 01:47:34;;;;;;;26.20;6.43;;;;;;;;;;5132693;27;20011;-65
2022/09/06 01:50:11;;;;;;;16.25;2.85;;;;;;;;;;5129666;27;20021;-66
2022/09/06 01:52:44;;;;;;;13.63;4.05;;;;;;;;;;5135911;27;20097;-64
2022/09/06 01:55:24;;;;;;;14.95;4.32;;;;;;;;;;5130548;27;20126;-65
2022/09/06 01:57:49;;;;;;;13.07;4.45;;;;;;;;;;5133263;27;20026;-66
2022/09/06 02:00:16;;;;;;;16.55;4.80;;;;;;;;;;5130342;27;20019;-66
2022/09/06 02:03:01;;;;;;;13.40;4.65;;;;;;;;;;5127380;27;20015;-65
2022/09/06 02:05:45;;;;;;;22.50;4.35;;;;;;;;;;5132995;27;20027;-65
2022/09/06 02:08:13;;;;;;;11.82;3.53;;;;;;;;;;5135663;27;20042;-64
2022/09/06 02:10:38;;;;;;;19.98;4.32;;;;;;;;;;5130600;27;20015;-65
2022/09/06 02:13:05;;;;;;;9.95;4.72;;;;;;;;;;5129523;27;20038;-65
2022/09/06 02:15:32;;;;;;;6.22;2.15;;;;;;;;;;5134225;27;20473;-65
2022/09/06 02:18:18;;;;;;;17.75;4.05;;;;;;;;;;5134821;27;20493;-66
2022/09/06 02:20:51;;;;;;;9.23;4.13;;;;;;;;;;5133127;27;20082;-66
2022/09/06 02:23:19;;;;;;;18.10;3.65;;;;;;;;;;5131208;27;20077;-65
2022/09/06 02:25:49;;;;;;;14.38;2.90;;;;;;;;;;5137075;27;20019;-65
2022/09/06 02:28:15;;;;;;;5.10;2.83;;;;;;;;;;5130038;27;20011;-65
2022/09/06 02:30:46;;;;;;;8.05;4.50;;;;;;;;;;5128344;27;20053;-65
2022/09/06 02:33:15;;;;;;;11.00;3.28;;;;;;;;;;5129369;27;20046;-65
2022/09/06 02:35:45;;;;;;;9.35;3.83;;;;;;;;;;5123313;27;20126;-65
2022/09/06 02:38:10;;;;;;;6.20;3.50;;;;;;;;;;5136915;27;20027;-65
2022/09/06 02:40:36;;;;;;;4.18;2.30;;;;;;;;;;5136365;27;20023;-65
2022/09/06 02:43:01;;;;;;;8.38;3.50;;;;;;;;;;5133216;27;20031;-65
2022/09/06 02:45:26;;;;;;;15.23;4.85;;;;;;;;;;5134283;27;20015;-66
2022/09/06 02:47:51;;;;;;;11.13;2.55;;;;;;;;;;5135614;27;20016;-66
2022/09/06 02:50:17;;;;;;;8.77;1.23;;;;;;;;;;5134809;27;20015;-64
2022/09/06 02:52:42;;;;;;;6.22;3.33;;;;;;;;;;5134633;27;20110;-65
2022/09/06 02:55:07;;;;;;;16.30;2.63;;;;;;;;;;5130053;27;20130;-65
2022/09/06 02:57:34;;;;;;;15.10;4.20;;;;;;;;;;5131735;27;20015;-66
2022/09/06 02:59:59;;;;;;;11.45;2.90;;;;;;;;;;5132795;27;20101;-65
2022/09/06 03:02:24;;;;;;;8.02;2.58;;;;;;;;;;5133105;27;20097;-65
2022/09/06 03:04:50;;;;;;;10.95;4.38;;;;;;;;;;5131947;27;20011;-65
2022/09/06 03:07:15;;;;;;;17.00;3.22;;;;;;;;;;5138058;27;20027;-65
2022/09/06 03:09:40;;;;;;;8.73;4.05;;;;;;;;;;5133201;27;20355;-66
2022/09/06 03:12:06;;;;;;;15.73;4.57;;;;;;;;;;5136536;27;20028;-65
2022/09/06 03:14:31;;;;;;;11.80;3.05;;;;;;;;;;5137124;27;20056;-64
2022/09/06 03:16:56;;;;;;;13.15;3.35;;;;;;;;;;5133352;27;20031;-64
2022/09/06 03:19:22;;;;;;;9.80;2.70;;;;;;;;;;5133020;27;20030;-65
2022/09/06 03:21:47;;;;;;;15.40;3.60;;;;;;;;;;5134091;27;20126;-65
2022/09/06 03:24:12;;;;;;;7.90;1.30;;;;;;;;;;5136157;27;20027;-64
2022/09/06 03:26:38;;;;;;;16.52;2.13;;;;;;;;;;5131475;27;20620;-65
2022/09/06 03:29:03;;;;;;;10.10;3.20;;;;;;;;;;5131659;27;20041;-65
2022/09/06 03:31:28;;;;;;;8.82;3.20;;;;;;;;;;5133938;27;20506;-64
2022/09/06 03:33:53;;;;;;;7.70;3.75;;;;;;;;;;5136241;27;20007;-65
2022/09/06 03:36:19;;;;;;;14.90;2.97;;;;;;;;;;5135804;27;20031;-65
2022/09/06 03:38:44;;;;;;;15.30;4.07;;;;;;;;;;5130660;27;20046;-64
2022/09/06 03:41:09;;;;;;;7.38;2.05;;;;;;;;;;5127968;27;20408;-65
2022/09/06 03:43:35;;;;;;;5.70;3.05;;;;;;;;;;5133855;27;20023;-65
2022/09/06 03:46:01;;;;;;;11.90;2.55;;;;;;;;;;5131733;27;20125;-64
2022/09/06 03:48:27;;;;;;;10.50;2.95;;;;;;;;;;5133140;27;20015;-65
2022/09/06 03:50:54;;;;;;;16.25;3.67;;;;;;;;;;5129587;27;20416;-65
2022/09/06 03:53:19;;;;;;;13.05;3.53;;;;;;;;;;5133345;27;20015;-65
2022/09/06 03:55:49;;;;;;;10.48;2.97;;;;;;;;;;5134447;27;20068;-65
2022/09/06 03:58:16;;;;;;;7.85;2.47;;;;;;;;;;5131582;27;20637;-65
2022/09/06 04:00:41;;;;;;;14.45;2.58;;;;;;;;;;5126629;27;20035;-64
2022/09/06 04:03:06;;;;;;;6.00;2.75;;;;;;;;;;5128935;27;20015;-65
2022/09/06 04:05:32;;;;;;;10.45;3.33;;;;;;;;;;5133859;27;20078;-65
2022/09/06 04:07:57;;;;;;;4.28;1.67;;;;;;;;;;5128693;27;20045;-65
2022/09/06 04:10:22;;;;;;;5.70;1.33;;;;;;;;;;5131612;27;20559;-66
2022/09/06 04:12:47;;;;;;;2.65;1.45;;;;;;;;;;5133101;27;20033;-66
2022/09/06 04:15:13;;;;;;;19.20;3.38;;;;;;;;;;5138977;27;20045;-65
2022/09/06 04:17:38;;;;;;;7.40;2.13;;;;;;;;;;5139744;27;20034;-65
2022/09/06 04:20:04;;;;;;;8.45;2.15;;;;;;;;;;5129512;27;20027;-65
2022/09/06 04:22:29;;;;;;;5.30;3.00;;;;;;;;;;5131965;27;20030;-65
2022/09/06 04:24:54;;;;;;;9.40;2.28;;;;;;;;;;5127439;27;20146;-65
2022/09/06 04:27:20;;;;;;;8.63;2.33;;;;;;;;;;5134654;27;20034;-65
2022/09/06 04:29:45;;;;;;;6.70;2.42;;;;;;;;;;5131847;27;20030;-65
2022/09/06 04:32:10;;;;;;;7.30;2.13;;;;;;;;;;5131314;27;20058;-66
2022/09/06 04:34:35;;;;;;;15.50;3.97;;;;;;;;;;5128205;27;20025;-65
2022/09/06 04:37:01;;;;;;;12.88;3.55;;;;;;;;;;5125480;27;20390;-65
2022/09/06 04:39:26;;;;;;;11.93;2.58;;;;;;;;;;5135716;27;20033;-65
2022/09/06 04:41:51;;;;;;;16.25;2.40;;;;;;;;;;5133646;27;20031;-65
2022/09/06 04:44:17;;;;;;;10.50;3.13;;;;;;;;;;5134040;27;20122;-65
2022/09/06 04:46:42;;;;;;;6.63;2.90;;;;;;;;;;5130188;27;20028;-65
2022/09/06 04:49:07;;;;;;;17.55;4.75;;;;;;;;;;5132095;27;20019;-65
2022/09/06 04:51:33;;;;;;;10.52;2.53;;;;;;;;;;5129073;27;20019;-65
2022/09/06 04:53:58;;;;;;;11.65;2.90;;;;;;;;;;5130787;27;20038;-65
2022/09/06 04:56:24;;;;;;;4.20;1.42;;;;;;;;;;5134970;27;20043;-65
2022/09/06 04:58:50;;;;;;;5.38;2.17;;;;;;;;;;5132329;27;20110;-65
2022/09/06 05:01:16;;;;;;;9.02;2.72;;;;;;;;;;5130402;27;20046;-65
2022/09/06 05:03:41;;;;;;;6.53;1.92;;;;;;;;;;5133091;27;20480;-64
2022/09/06 05:06:08;;;;;;;10.93;3.42;;;;;;;;;;5132790;27;20031;-64
2022/09/06 05:08:35;;;;;;;8.00;2.25;;;;;;;;;;5135705;27;20118;-64
2022/09/06 05:11:00;;;;;;;6.70;2.35;;;;;;;;;;5126638;27;20019;-65
2022/09/06 05:13:25;;;;;;;15.90;2.97;;;;;;;;;;5134579;27;20092;-65
2022/09/06 05:15:51;;;;;;;10.48;3.08;;;;;;;;;;5136011;27;20492;-66
2022/09/06 05:18:16;;;;;;;6.25;1.92;;;;;;;;;;5132402;27;20031;-65
2022/09/06 05:20:41;;;;;;;8.73;2.20;;;;;;;;;;5131434;27;20022;-66
2022/09/06 05:23:07;;;;;;;10.85;2.30;;;;;;;;;;5125550;27;20027;-66
2022/09/06 05:25:33;;;;;;;11.00;3.22;;;;;;;;;;5132482;27;20434;-66
2022/09/06 05:27:58;;;;;;;6.35;3.03;;;;;;;;;;5124442;27;20030;-66
2022/09/06 05:30:23;;;;;;;6.97;2.65;;;;;;;;;;5133717;27;20134;-65
2022/09/06 05:32:49;;;;;;;11.45;4.40;;;;;;;;;;5127071;27;20044;-65
2022/09/06 05:35:15;;;;;;;13.65;3.95;;;;;;;;;;5127690;27;20020;-65
2022/09/06 05:37:40;;;;;;;13.52;4.10;;;;;;;;;;5131215;27;20026;-64
2022/09/06 05:40:05;;;;;;;3.10;1.98;;;;;;;;;;5133518;27;20010;-65
2022/09/06 05:42:31;;;;;;;11.20;3.25;;;;;;;;;;5128724;27;20015;-65
2022/09/06 05:44:56;;;;;;;3.30;2.45;;;;;;;;;;5126797;27;20018;-64
2022/09/06 05:47:21;;;;;;;9.63;3.80;;;;;;;;;;5132038;27;20023;-64
2022/09/06 05:49:47;;;;;;;7.63;2.83;;;;;;;;;;5131430;27;20031;-64
2022/09/06 05:52:12;;;;;;;6.97;3.30;;;;;;;;;;5129461;27;20106;-65
2022/09/06 05:54:37;;;;;;;3.80;2.38;;;;;;;;;;5132241;27;20065;-65
2022/09/06 05:57:03;;;;;;;5.28;2.88;;;;;;;;;;5125493;27;20021;-46
2022/09/06 05:59:28;;;;;;;17.75;4.55;;;;;;;;;;5132570;27;20068;-49
2022/09/06 06:01:53;;;;;;;5.10;2.70;;;;;;;;;;5135490;27;20023;-46
2022/09/06 06:04:19;;;;;;;6.13;2.63;;;;;;;;;;5132928;27;20023;-48
2022/09/06 06:06:45;;;;;;;14.10;2.90;;;;;;;;;;5130461;27;20027;-48
2022/09/06 06:09:11;;;;;;;5.68;1.95;;;;;;;;;;5131009;27;20101;-44
2022/09/06 06:11:37;;;;;;;8.60;1.95;;;;;;;;;;5135824;27;20040;-44
2022/09/06 06:14:03;;;;;;;5.20;2.35;;;;;;;;;;5138710;27;20409;-43
2022/09/06 06:16:28;;;;;;;7.95;2.22;;;;;;;;;;5136986;27;20030;-46
2022/09/06 06:18:53;;;;;;;11.32;2.45;;;;;;;;;;5131275;27;20451;-44
2022/09/06 06:21:19;;;;;;;13.20;4.07;;;;;;;;;;5133783;27;20038;-44
2022/09/06 06:23:45;;;;;;;15.07;4.88;;;;;;;;;;5130358;27;20016;-43
2022/09/06 06:26:11;;;;;;;12.63;4.63;;;;;;;;;;5135052;27;20019;-43
2022/09/06 06:28:37;;;;;;;37.47;6.38;;;;;;;;;;5136378;27;20455;-44
2022/09/06 06:31:03;;;;;;;16.33;4.63;;;;;;;;;;5136719;27;20025;-42
2022/09/06 06:33:29;;;;;;;14.25;4.57;;;;;;;;;;5136057;27;20085;-45
2022/09/06 06:35:57;;;;;;;8.80;2.92;;;;;;;;;;5137302;27;20644;-46
2022/09/06 06:38:22;;;;;;;9.13;4.65;;;;;;;;;;5130177;27;20035;-46
2022/09/06 06:40:48;;;;;;;19.52;5.13;;;;;;;;;;5132250;27;20022;-45
2022/09/06 06:43:13;;;;;;;7.90;3.75;;;;;;;;;;5132220;27;20022;-47
2022/09/06 06:45:38;;;;;;;10.65;4.00;;;;;;;;;;5135790;27;20019;-47
2022/09/06 06:48:04;;;;;;;26.95;9.02;;;;;;;;;;5138808;27;20015;-49
2022/09/06 06:50:29;;;;;;;17.33;7.05;;;;;;;;;;5132372;27;20020;-46
2022/09/06 06:52:54;;;;;;;24.55;21.80;;;;;;;;;;5132978;27;20519;-48
2022/09/06 06:55:19;;;;;;;16.58;9.32;;;;;;;;;;5135787;27;20046;-42
2022/09/06 06:57:45;;;;;;;13.75;8.18;;;;;;;;;;5135514;27;20023;-43
2022/09/06 07:00:10;;;;;;;15.30;5.72;;;;;;;;;;5128643;27;20069;-47
2022/09/06 07:02:35;;;;;;;17.85;3.50;;;;;;;;;;5130941;27;20106;-45
2022/09/06 07:05:01;;;;;;;10.25;4.10;;;;;;;;;;5135323;27;20493;-45
2022/09/06 07:07:26;;;;;;;11.18;3.33;;;;;;;;;;5138218;27;20043;-46
2022/09/06 07:09:51;;;;;;;8.18;4.47;;;;;;;;;;5136620;27;20007;-48
2022/09/06 07:12:17;;;;;;;7.78;5.10;;;;;;;;;;5132241;27;20443;-47
2022/09/06 07:14:42;;;;;;;20.23;8.15;;;;;;;;;;5132697;27;20084;-47
2022/09/06 07:17:08;;;;;;;23.63;6.43;;;;;;;;;;5130211;27;20022;-49
2022/09/06 07:19:33;;;;;;;25.67;9.68;;;;;;;;;;5137030;27;20121;-49
2022/09/06 07:21:58;;;;;;;9.05;6.63;;;;;;;;;;5134236;27;20641;-48
2022/09/06 07:24:24;;;;;;;12.52;5.70;;;;;;;;;;5134835;27;20053;-45
2022/09/06 07:26:49;;;;;;;11.63;7.10;;;;;;;;;;5134352;27;20067;-46
2022/09/06 07:29:14;;;;;;;9.98;7.43;;;;;;;;;;5134438;27;20027;-44
2022/09/06 07:31:39;;;;;;;6.75;5.93;;;;;;;;;;5136148;27;20019;-47
2022/09/06 07:34:05;;;;;;;8.02;7.25;;;;;;;;;;5136814;27;20661;-42
2022/09/06 07:36:30;;;;;;;7.57;5.90;;;;;;;;;;5129727;27;20478;-41
2022/09/06 07:38:55;;;;;;;16.08;7.05;;;;;;;;;;5132758;27;20023;-43
2022/09/06 07:41:21;;;;;;;19.08;10.27;;;;;;;;;;5131150;27;20061;-43
2022/09/06 07:43:47;;;;;;;13.13;6.45;;;;;;;;;;5133519;27;20565;-45
2022/09/06 07:46:16;;;;;;;11.05;6.22;;;;;;;;;;5129142;27;20024;-46
2022/09/06 07:48:42;;;;;;;19.58;9.55;;;;;;;;;;5134398;27;20011;-45
2022/09/06 07:51:12;;;;;;;18.67;8.13;;;;;;;;;;5134567;27;20413;-44
2022/09/06 07:53:38;;;;;;;17.17;6.95;;;;;;;;;;5131126;27;20537;-46
2022/09/06 07:56:05;;;;;;;8.88;4.15;;;;;;;;;;5125429;27;20047;-42
2022/09/06 07:58:31;;;;;;;17.88;6.25;;;;;;;;;;5133378;27;20051;-41
2022/09/06 08:01:15;;;;;;;11.63;4.45;;;;;;;;;;5131208;27;20581;-42
2022/09/06 08:03:40;;;;;;;6.57;3.90;;;;;;;;;;5134351;27;20031;-44
2022/09/06 08:06:06;;;;;;;5.35;2.30;;;;;;;;;;5129379;27;20377;-43
2022/09/06 08:08:31;;;;;;;7.25;4.55;;;;;;;;;;5136528;27;20027;-44
2022/09/06 08:10:56;;;;;;;4.00;1.83;;;;;;;;;;5131975;27;20051;-42
2022/09/06 08:13:21;;;;;;;9.32;2.97;;;;;;;;;;5127608;27;20043;-44
2022/09/06 08:15:47;;;;;;;7.18;4.30;;;;;;;;;;5125076;27;20023;-43
2022/09/06 08:18:12;;;;;;;14.20;4.35;;;;;;;;;;5125568;27;20498;-44
2022/09/06 08:20:37;;;;;;;11.02;3.90;;;;;;;;;;5131805;27;20044;-43
2022/09/06 08:23:08;;;;;;;7.90;6.75;;;;;;;;;;5111563;27;20023;-44
2022/09/06 08:25:33;;;;;;;20.90;10.10;;;;;;;;;;5130598;27;20491;-43
2022/09/06 08:27:58;;;;;;;9.48;6.00;;;;;;;;;;5127296;27;20035;-42
2022/09/06 08:30:24;;;;;;;24.13;11.77;;;;;;;;;;5134363;27;20584;-44
2022/09/06 08:32:50;;;;;;;22.63;15.57;;;;;;;;;;5127707;27;20046;-43
2022/09/06 08:35:16;;;;;;;21.42;13.93;;;;;;;;;;5128691;27;20039;-47
2022/09/06 08:37:41;;;;;;;27.45;18.45;;;;;;;;;;5130771;27;20078;-43
2022/09/06 08:40:07;;;;;;;30.92;14.88;;;;;;;;;;5129140;27;20029;-45
2022/09/06 08:42:36;;;;;;;38.55;17.38;;;;;;;;;;5131277;27;20072;-43
2022/09/06 08:45:03;;;;;;;22.23;15.00;;;;;;;;;;5138041;27;20068;-45
2022/09/06 08:47:28;;;;;;;23.48;12.38;;;;;;;;;;5128846;27;20023;-43
2022/09/06 08:50:00;;;;;;;25.67;11.23;;;;;;;;;;5132079;27;20363;-45
2022/09/06 08:52:34;;;;;;;39.88;14.75;;;;;;;;;;5132970;27;20039;-44
2022/09/06 08:55:03;;;;;;;30.90;10.35;;;;;;;;;;5129724;27;20084;-48
2022/09/06 08:57:28;;;;;;;10.95;7.22;;;;;;;;;;5126225;27;20019;-44
2022/09/06 08:59:56;;;;;;;12.52;6.22;;;;;;;;;;5122026;27;20031;-45
2022/09/06 09:02:22;;;;;;;12.48;7.50;;;;;;;;;;5131297;27;20477;-46
2022/09/06 09:04:50;;;;;;;13.27;6.35;;;;;;;;;;5130643;27;20514;-44
2022/09/06 09:07:25;;;;;;;21.85;8.20;;;;;;;;;;5133285;27;20497;-45
2022/09/06 09:09:51;;;;;;;12.82;6.80;;;;;;;;;;5127697;27;20109;-45
2022/09/06 09:12:19;;;;;;;10.73;4.57;;;;;;;;;;5130307;27;20094;-43
2022/09/06 09:14:47;;;;;;;9.32;5.50;;;;;;;;;;5130930;27;20019;-47
2022/09/06 09:17:21;;;;;;;14.73;8.63;;;;;;;;;;5129214;27;20481;-45
2022/09/06 09:19:46;;;;;;;21.70;8.30;;;;;;;;;;5129189;27;20023;-48
2022/09/06 09:22:16;;;;;;;9.15;4.72;;;;;;;;;;5135341;27;20030;-46
2022/09/06 09:24:42;;;;;;;10.07;4.57;;;;;;;;;;5132160;27;20039;-48
2022/09/06 09:27:10;;;;;;;12.35;4.47;;;;;;;;;;5132444;27;20609;-47
2022/09/06 09:29:53;;;;;;;17.27;4.63;;;;;;;;;;5127141;27;20016;-45
2022/09/06 09:32:38;;;;;;;14.50;4.13;;;;;;;;;;5132334;27;20050;-45
2022/09/06 09:35:22;;;;;;;8.23;3.33;;;;;;;;;;5127535;27;20020;-42
2022/09/06 09:37:54;;;;;;;9.52;5.45;;;;;;;;;;5132461;27;20054;-45
2022/09/06 09:40:23;;;;;;;9.30;3.03;;;;;;;;;;5130847;27;20020;-47
2022/09/06 09:42:48;;;;;;;12.02;2.75;;;;;;;;;;5130584;27;20042;-46
2022/09/06 09:45:20;;;;;;;15.25;4.28;;;;;;;;;;5126069;27;20537;-43
2022/09/06 09:47:45;;;;;;;8.20;4.05;;;;;;;;;;5132765;27;20138;-43
2022/09/06 09:50:29;;;;;;;12.60;3.75;;;;;;;;;;5133676;27;20040;-45
2022/09/06 09:52:55;;;;;;;6.50;3.20;;;;;;;;;;5133686;27;20103;-43
2022/09/06 09:55:22;;;;;;;15.10;3.80;;;;;;;;;;5125213;27;20514;-43
2022/09/06 09:57:49;;;;;;;12.63;4.03;;;;;;;;;;5117996;27;20023;-44
2022/09/06 10:00:30;;;;;;;7.38;4.10;;;;;;;;;;5135696;27;20024;-47
2022/09/06 10:02:56;;;;;;;6.55;3.85;;;;;;;;;;5132451;27;20014;-44
2022/09/06 10:05:22;;;;;;;9.63;3.67;;;;;;;;;;5132627;27;20034;-45
2022/09/06 10:07:49;;;;;;;13.50;3.38;;;;;;;;;;5126934;27;20095;-45
2022/09/06 10:10:20;;;;;;;12.77;3.40;;;;;;;;;;5134726;27;20071;-44
2022/09/06 10:12:45;;;;;;;5.68;3.05;;;;;;;;;;5137233;27;20079;-44
2022/09/06 10:15:17;;;;;;;14.02;2.95;;;;;;;;;;5133793;27;20478;-43
2022/09/06 10:17:45;;;;;;;6.10;2.38;;;;;;;;;;5131118;27;20019;-45
2022/09/06 10:20:11;;;;;;;11.70;2.30;;;;;;;;;;5135054;27;20042;-43
2022/09/06 10:22:36;;;;;;;4.35;2.03;;;;;;;;;;5130434;27;20057;-43
2022/09/06 10:25:28;;;;;;;3.00;1.83;;;;;;;;;;5132364;27;20698;-43
2022/09/06 10:28:12;;;;;;;7.05;2.50;;;;;;;;;;5127005;27;20062;-42
2022/09/06 10:31:00;;;;;;;5.95;1.83;;;;;;;;;;5134106;27;20122;-45
2022/09/06 10:33:25;;;;;;;5.97;2.78;;;;;;;;;;5126907;27;20064;-45
2022/09/06 10:35:51;;;;;;;6.15;2.95;;;;;;;;;;5140087;27;20116;-45
2022/09/06 10:38:16;;;;;;;20.08;2.72;;;;;;;;;;5140786;27;20022;-44
2022/09/06 10:40:48;;;;;;;3.45;2.65;;;;;;;;;;5137239;27;20192;-44
2022/09/06 10:43:16;;;;;;;4.25;2.42;;;;;;;;;;5136378;27;20031;-47
2022/09/06 10:45:42;;;;;;;23.25;3.85;;;;;;;;;;5134902;27;20023;-44
2022/09/06 10:48:07;;;;;;;4.57;1.80;;;;;;;;;;5134427;27;20023;-45
2022/09/06 10:50:33;;;;;;;17.95;3.22;;;;;;;;;;5133752;27;20240;-45
2022/09/06 10:53:04;;;;;;;26.02;23.30;;;;;;;;;;5139804;27;20051;-46
2022/09/06 10:55:31;;;;;;;8.13;3.47;;;;;;;;;;5135156;27;20136;-44
2022/09/06 10:58:00;;;;;;;6.88;2.13;;;;;;;;;;5137165;27;20023;-46
2022/09/06 11:00:26;;;;;;;4.97;1.67;;;;;;;;;;5136633;27;20021;-44
2022/09/06 11:03:00;;;;;;;2.88;1.35;;;;;;;;;;5140640;27;20023;-46
2022/09/06 11:05:29;;;;;;;10.75;1.88;;;;;;;;;;5136929;27;20015;-46
2022/09/06 11:08:15;;;;;;;1.98;1.63;;;;;;;;;;5140169;27;20526;-45
2022/09/06 11:10:44;;;;;;;13.95;3.20;;;;;;;;;;5083028;27;20072;-45
2022/09/06 11:13:12;;;;;;;4.60;1.92;;;;;;;;;;5134245;27;20054;-45
2022/09/06 11:15:40;;;;;;;4.93;2.65;;;;;;;;;;5131478;27;20038;-44
2022/09/06 11:18:08;;;;;;;7.82;3.35;;;;;;;;;;5132496;27;20159;-51
2022/09/06 11:20:41;;;;;;;7.10;3.00;;;;;;;;;;5134898;27;20076;-45
2022/09/06 11:23:06;;;;;;;7.13;1.73;;;;;;;;;;5132910;27;20027;-44
2022/09/06 11:25:45;;;;;;;6.77;2.03;;;;;;;;;;5132548;27;20018;-45
2022/09/06 11:28:14;;;;;;;3.13;1.80;;;;;;;;;;5133109;27;20258;-47
2022/09/06 11:30:43;;;;;;;8.25;2.50;;;;;;;;;;5134742;27;20163;-44
2022/09/06 11:33:14;;;;;;;5.22;3.10;;;;;;;;;;5131531;27;20098;-45
2022/09/06 11:35:41;;;;;;;17.02;1.88;;;;;;;;;;5115804;27;20380;-43
2022/09/06 11:38:15;;;;;;;6.63;1.85;;;;;;;;;;5131079;27;20626;-44
2022/09/06 11:41:01;;;;;;;4.25;1.98;;;;;;;;;;5132205;27;20445;-45
2022/09/06 11:43:45;;;;;;;2.83;1.42;;;;;;;;;;5128509;27;20031;-46
2022/09/06 11:46:31;;;;;;;4.70;1.42;;;;;;;;;;5135347;27;20029;-43
2022/09/06 11:49:02;;;;;;;9.07;3.47;;;;;;;;;;5129738;27;20966;-46
2022/09/06 11:51:31;;;;;;;4.38;1.30;;;;;;;;;;5130716;27;20081;-41
2022/09/06 11:53:56;;;;;;;3.70;2.05;;;;;;;;;;5133258;27;20023;-41
2022/09/06 11:56:24;;;;;;;7.75;1.98;;;;;;;;;;5133839;27;20083;-42
2022/09/06 11:58:54;;;;;;;7.13;2.00;;;;;;;;;;5132515;27;20489;-42
2022/09/06 12:01:19;;;;;;;2.67;1.67;;;;;;;;;;5130105;27;20035;-42
2022/09/06 12:03:48;;;;;;;6.93;2.20;;;;;;;;;;5128467;27;20447;-41
2022/09/06 12:06:19;;;;;;;5.10;2.08;;;;;;;;;;5128062;27;20023;-42
2022/09/06 12:08:45;;;;;;;28.48;4.40;;;;;;;;;;5129141;27;20046;-45
2022/09/06 12:11:29;;;;;;;6.57;2.38;;;;;;;;;;5136285;27;20042;-42
2022/09/06 12:13:54;;;;;;;3.15;1.98;;;;;;;;;;5135556;27;20015;-42
2022/09/06 12:16:20;;;;;;;9.93;2.80;;;;;;;;;;5135420;27;20011;-42
2022/09/06 12:18:45;;;;;;;7.47;3.05;;;;;;;;;;5132288;27;20030;-43
2022/09/06 12:21:29;;;;;;;11.50;2.10;;;;;;;;;;5129354;27;20516;-42
2022/09/06 12:23:55;;;;;;;9.70;2.03;;;;;;;;;;5129957;27;20254;-41
2022/09/06 12:26:39;;;;;;;3.90;1.90;;;;;;;;;;5134793;27;20018;-47
2022/09/06 12:29:09;;;;;;;18.38;2.78;;;;;;;;;;5128939;27;20007;-42
2022/09/06 12:31:49;;;;;;;5.47;1.92;;;;;;;;;;5127435;27;20083;-41
2022/09/06 12:34:20;;;;;;;3.72;1.38;;;;;;;;;;5128143;27;20102;-43
2022/09/06 12:36:47;;;;;;;2.72;1.45;;;;;;;;;;5129929;27;20530;-43
2022/09/06 12:39:12;;;;;;;5.30;3.03;;;;;;;;;;5134049;27;20033;-42
2022/09/06 12:41:39;;;;;;;5.65;2.22;;;;;;;;;;5127771;27;20098;-44
2022/09/06 12:44:05;;;;;;;5.53;1.58;;;;;;;;;;5127873;27;20416;-42
2022/09/06 12:46:31;;;;;;;2.78;1.92;;;;;;;;;;5133510;27;20024;-42
2022/09/06 12:49:00;;;;;;;4.63;2.33;;;;;;;;;;5131543;27;20035;-45
2022/09/06 12:51:25;;;;;;;7.10;3.00;;;;;;;;;;5127208;27;20015;-45
2022/09/06 12:53:52;;;;;;;6.57;2.40;;;;;;;;;;5129550;27;20021;-44
2022/09/06 12:56:19;;;;;;;6.20;2.30;;;;;;;;;;5131042;27;20076;-42
2022/09/06 12:58:44;;;;;;;7.57;1.42;;;;;;;;;;5130123;27;20110;-44
2022/09/06 13:01:12;;;;;;;1.73;0.98;;;;;;;;;;5137324;27;20549;-42
2022/09/06 13:03:48;;;;;;;3.00;1.65;;;;;;;;;;5128290;27;20019;-44
2022/09/06 13:06:17;;;;;;;7.00;2.08;;;;;;;;;;5127091;27;20045;-43
2022/09/06 13:08:49;;;;;;;3.95;1.45;;;;;;;;;;5128828;27;20020;-44
2022/09/06 13:11:16;;;;;;;2.88;1.35;;;;;;;;;;5130327;27;20484;-46
2022/09/06 13:13:50;;;;;;;3.50;1.63;;;;;;;;;;5129951;27;20023;-44
2022/09/06 13:16:25;;;;;;;7.97;1.98;;;;;;;;;;5128705;27;20207;-42
2022/09/06 13:18:50;;;;;;;3.33;1.00;;;;;;;;;;5125664;27;20056;-43
2022/09/06 13:21:25;;;;;;;2.70;1.77;;;;;;;;;;5130339;27;20067;-47
2022/09/06 13:23:50;;;;;;;9.57;2.47;;;;;;;;;;5102343;27;20018;-43
2022/09/06 13:26:32;;;;;;;6.13;1.92;;;;;;;;;;5128059;27;20136;-45
2022/09/06 13:29:07;;;;;;;3.13;1.40;;;;;;;;;;5130858;27;20110;-42
2022/09/06 13:31:35;;;;;;;6.50;2.17;;;;;;;;;;5126655;27;20650;-46
2022/09/06 13:34:01;;;;;;;4.78;1.75;;;;;;;;;;5127957;27;20060;-42
2022/09/06 13:36:28;;;;;;;5.07;2.20;;;;;;;;;;5129965;27;20415;-45
2022/09/06 13:38:54;;;;;;;2.30;1.35;;;;;;;;;;5127021;27;20015;-43
2022/09/06 13:41:25;;;;;;;9.48;2.38;;;;;;;;;;5128136;27;20145;-41
2022/09/06 13:43:57;;;;;;;8.95;2.05;;;;;;;;;;5129032;27;20344;-43
2022/09/06 13:46:22;;;;;;;3.78;1.40;;;;;;;;;;5133517;27;20553;-43
2022/09/06 13:48:48;;;;;;;3.70;1.83;;;;;;;;;;5130995;27;20113;-43
2022/09/06 13:51:13;;;;;;;3.13;1.25;;;;;;;;;;5132954;27;20102;-43
2022/09/06 13:53:38;;;;;;;4.47;1.23;;;;;;;;;;5130967;27;20467;-44
2022/09/06 13:56:07;;;;;;;5.15;1.95;;;;;;;;;;5132001;27;20054;-43
2022/09/06 13:58:33;;;;;;;4.57;1.13;;;;;;;;;;5131439;27;20038;-46
2022/09/06 14:00:58;;;;;;;6.18;2.15;;;;;;;;;;5128245;27;20031;-43
2022/09/06 14:03:25;;;;;;;6.03;1.33;;;;;;;;;;5131769;27;20565;-44
2022/09/06 14:05:51;;;;;;;9.10;2.55;;;;;;;;;;5132694;27;20031;-43
2022/09/06 14:08:16;;;;;;;3.92;1.45;;;;;;;;;;5133137;27;20016;-44
2022/09/06 14:10:42;;;;;;;4.40;1.55;;;;;;;;;;5130976;27;20358;-44
2022/09/06 14:13:07;;;;;;;2.63;1.52;;;;;;;;;;5134838;27;20016;-42
2022/09/06 14:15:32;;;;;;;16.40;2.13;;;;;;;;;;5131290;27;20028;-42
2022/09/06 14:17:58;;;;;;;5.80;1.95;;;;;;;;;;5133140;27;20019;-42
2022/09/06 14:20:23;;;;;;;3.30;1.33;;;;;;;;;;5131962;27;20104;-43
2022/09/06 14:22:48;;;;;;;3.53;1.40;;;;;;;;;;5130513;27;20453;-45
2022/09/06 14:25:14;;;;;;;9.75;2.05;;;;;;;;;;5124207;27;20023;-43
2022/09/06 14:27:39;;;;;;;3.45;1.23;;;;;;;;;;5131107;27;20051;-43
2022/09/06 14:30:04;;;;;;;5.07;1.60;;;;;;;;;;5126252;27;20072;-42
2022/09/06 14:32:30;;;;;;;4.93;1.05;;;;;;;;;;5129898;27;20023;-43
2022/09/06 14:34:55;;;;;;;3.92;1.10;;;;;;;;;;5131625;27;20615;-43
2022/09/06 14:37:21;;;;;;;2.65;1.30;;;;;;;;;;5138110;27;20110;-45
2022/09/06 14:39:46;;;;;;;4.40;1.92;;;;;;;;;;5133118;27;20485;-43